Black Canyon City, Arizona
Current Conditions -  °F | °C
As of 8:53 PM on Sunday 19 Oct 2014 (Local Time) from KDVT Reporting Station
Clear Clear  
Wind Chill: 71°   Ceiling: Unl
Heat Index: 71°   Visibility: 10mi
Dew Point: 56°   Wind: 6mph
Humidity: 59%   Direction: 190°S
Pressure: 29.88"   Gusts: NA
Location:  34.06°N, 112.11°W
Report Text: KDVT 200353Z AUTO 19005KT 10SM CLR 22/13 A2988 RMK AO2 SLP097 T02170133
Loading
Personal Weather Stations






























Interactive Weather Map
Tropical Storm Tracking
New forecast layout! Learn more

10-Day Weather Forecast

Advertisements
Track Severe Weather on mobile